sensor_id;sensor_type;location;lat;lon;timestamp;temperature;humidity
21282;DHT22;10800;53.096;18.328;2023-12-14T00:02:34;2.80;99.90
21282;DHT22;10800;53.096;18.328;2023-12-14T00:08:07;2.80;99.90
21282;DHT22;10800;53.096;18.328;2023-12-14T00:13:33;2.70;99.90
21282;DHT22;10800;53.096;18.328;2023-12-14T00:18:41;2.70;99.90
21282;DHT22;10800;53.096;18.328;2023-12-14T00:23:48;2.80;99.90
21282;DHT22;10800;53.096;18.328;2023-12-14T00:28:56;2.80;99.90
21282;DHT22;10800;53.096;18.328;2023-12-14T00:34:06;2.80;99.90
21282;DHT22;10800;53.096;18.328;2023-12-14T00:39:16;2.80;99.90
21282;DHT22;10800;53.096;18.328;2023-12-14T00:44:26;2.70;99.90
21282;DHT22;10800;53.096;18.328;2023-12-14T00:49:52;2.70;99.90
21282;DHT22;10800;53.096;18.328;2023-12-14T00:55:13;2.70;99.90
21282;DHT22;10800;53.096;18.328;2023-12-14T01:00:44;2.70;99.90
21282;DHT22;10800;53.096;18.328;2023-12-14T01:05:53;2.70;99.90
21282;DHT22;10800;53.096;18.328;2023-12-14T01:11:03;2.70;99.90
21282;DHT22;10800;53.096;18.328;2023-12-14T01:16:30;2.70;99.90
21282;DHT22;10800;53.096;18.328;2023-12-14T01:21:37;2.60;99.90
21282;DHT22;10800;53.096;18.328;2023-12-14T01:26:42;2.60;99.90
21282;DHT22;10800;53.096;18.328;2023-12-14T01:32:00;2.60;99.90
21282;DHT22;10800;53.096;18.328;2023-12-14T01:37:10;2.60;99.90
21282;DHT22;10800;53.096;18.328;2023-12-14T01:42:33;2.60;99.90
21282;DHT22;10800;53.096;18.328;2023-12-14T01:47:42;2.60;99.90
21282;DHT22;10800;53.096;18.328;2023-12-14T01:52:51;2.60;99.90
21282;DHT22;10800;53.096;18.328;2023-12-14T01:57:57;2.60;99.90
21282;DHT22;10800;53.096;18.328;2023-12-14T02:03:09;2.50;99.90
21282;DHT22;10800;53.096;18.328;2023-12-14T02:08:20;2.60;99.90
21282;DHT22;10800;53.096;18.328;2023-12-14T02:13:26;2.60;99.90
21282;DHT22;10800;53.096;18.328;2023-12-14T02:18:41;2.50;99.90
21282;DHT22;10800;53.096;18.328;2023-12-14T02:23:48;2.50;99.90
21282;DHT22;10800;53.096;18.328;2023-12-14T02:28:56;2.50;99.90
21282;DHT22;10800;53.096;18.328;2023-12-14T02:34:04;2.50;99.90
21282;DHT22;10800;53.096;18.328;2023-12-14T02:39:11;2.50;99.90
21282;DHT22;10800;53.096;18.328;2023-12-14T02:44:16;2.50;99.90
21282;DHT22;10800;53.096;18.328;2023-12-14T02:49:53;2.60;99.90
21282;DHT22;10800;53.096;18.328;2023-12-14T02:55:09;2.50;99.90
21282;DHT22;10800;53.096;18.328;2023-12-14T03:00:20;2.50;99.90
21282;DHT22;10800;53.096;18.328;2023-12-14T03:05:33;2.50;99.90
21282;DHT22;10800;53.096;18.328;2023-12-14T03:11:26;2.50;99.90
21282;DHT22;10800;53.096;18.328;2023-12-14T03:16:52;2.50;99.90
21282;DHT22;10800;53.096;18.328;2023-12-14T03:21:57;2.50;99.90
21282;DHT22;10800;53.096;18.328;2023-12-14T03:27:24;2.40;99.90
21282;DHT22;10800;53.096;18.328;2023-12-14T03:32:39;2.40;99.90
21282;DHT22;10800;53.096;18.328;2023-12-14T03:37:57;2.50;99.90
21282;DHT22;10800;53.096;18.328;2023-12-14T03:43:07;2.40;99.90
21282;DHT22;10800;53.096;18.328;2023-12-14T03:48:38;2.50;99.90
21282;DHT22;10800;53.096;18.328;2023-12-14T03:53:45;2.50;99.90
21282;DHT22;10800;53.096;18.328;2023-12-14T03:58:53;2.40;99.90
21282;DHT22;10800;53.096;18.328;2023-12-14T04:03:58;2.50;99.90
21282;DHT22;10800;53.096;18.328;2023-12-14T04:09:04;2.40;99.90
21282;DHT22;10800;53.096;18.328;2023-12-14T04:14:33;2.40;99.90
21282;DHT22;10800;53.096;18.328;2023-12-14T04:19:44;2.40;99.90
21282;DHT22;10800;53.096;18.328;2023-12-14T04:24:51;2.40;99.90
21282;DHT22;10800;53.096;18.328;2023-12-14T04:30:07;2.30;99.90
21282;DHT22;10800;53.096;18.328;2023-12-14T04:40:52;2.30;99.90
21282;DHT22;10800;53.096;18.328;2023-12-14T04:46:29;2.30;99.90
21282;DHT22;10800;53.096;18.328;2023-12-14T04:51:42;2.30;99.90
21282;DHT22;10800;53.096;18.328;2023-12-14T04:56:50;2.20;99.90
21282;DHT22;10800;53.096;18.328;2023-12-14T05:02:49;2.20;99.90
21282;DHT22;10800;53.096;18.328;2023-12-14T05:08:06;2.30;99.90
21282;DHT22;10800;53.096;18.328;2023-12-14T05:13:50;2.20;99.90
21282;DHT22;10800;53.096;18.328;2023-12-14T05:19:08;2.20;99.90
21282;DHT22;10800;53.096;18.328;2023-12-14T05:24:47;2.20;99.90
21282;DHT22;10800;53.096;18.328;2023-12-14T05:35:52;2.20;99.90
21282;DHT22;10800;53.096;18.328;2023-12-14T05:41:43;2.10;99.90
21282;DHT22;10800;53.096;18.328;2023-12-14T05:47:05;2.10;99.90
21282;DHT22;10800;53.096;18.328;2023-12-14T05:52:12;2.10;99.90
21282;DHT22;10800;53.096;18.328;2023-12-14T05:57:20;2.10;99.90
21282;DHT22;10800;53.096;18.328;2023-12-14T06:02:28;2.10;99.90
21282;DHT22;10800;53.096;18.328;2023-12-14T06:07:36;2.10;99.90
21282;DHT22;10800;53.096;18.328;2023-12-14T06:13:04;2.10;99.90
21282;DHT22;10800;53.096;18.328;2023-12-14T06:18:14;2.10;99.90
21282;DHT22;10800;53.096;18.328;2023-12-14T06:23:24;2.10;99.90
21282;DHT22;10800;53.096;18.328;2023-12-14T06:34:08;2.10;99.90
21282;DHT22;10800;53.096;18.328;2023-12-14T06:39:26;2.10;99.90
21282;DHT22;10800;53.096;18.328;2023-12-14T06:44:42;2.10;99.90
21282;DHT22;10800;53.096;18.328;2023-12-14T06:49:50;2.10;99.90
21282;DHT22;10800;53.096;18.328;2023-12-14T06:54:57;2.10;99.90
21282;DHT22;10800;53.096;18.328;2023-12-14T07:00:07;2.00;99.90
21282;DHT22;10800;53.096;18.328;2023-12-14T07:05:38;2.10;99.90
21282;DHT22;10800;53.096;18.328;2023-12-14T07:10:50;2.00;99.90
21282;DHT22;10800;53.096;18.328;2023-12-14T07:16:03;2.00;99.90
21282;DHT22;10800;53.096;18.328;2023-12-14T07:21:11;2.00;99.90
21282;DHT22;10800;53.096;18.328;2023-12-14T07:26:16;2.00;99.90
21282;DHT22;10800;53.096;18.328;2023-12-14T07:31:24;2.00;99.90
21282;DHT22;10800;53.096;18.328;2023-12-14T07:36:45;2.00;99.90
21282;DHT22;10800;53.096;18.328;2023-12-14T07:42:17;2.00;99.90
21282;DHT22;10800;53.096;18.328;2023-12-14T07:47:30;2.00;99.90
21282;DHT22;10800;53.096;18.328;2023-12-14T07:52:47;2.00;99.90
21282;DHT22;10800;53.096;18.328;2023-12-14T07:58:03;1.90;99.90
21282;DHT22;10800;53.096;18.328;2023-12-14T08:03:10;2.00;99.90
21282;DHT22;10800;53.096;18.328;2023-12-14T08:08:22;2.00;99.90
21282;DHT22;10800;53.096;18.328;2023-12-14T08:13:46;2.00;99.90
21282;DHT22;10800;53.096;18.328;2023-12-14T08:19:32;2.10;99.90
21282;DHT22;10800;53.096;18.328;2023-12-14T08:25:17;2.10;99.90
21282;DHT22;10800;53.096;18.328;2023-12-14T08:30:42;2.20;99.90
21282;DHT22;10800;53.096;18.328;2023-12-14T08:36:00;2.20;99.90
21282;DHT22;10800;53.096;18.328;2023-12-14T08:41:15;2.30;99.90
21282;DHT22;10800;53.096;18.328;2023-12-14T08:46:28;2.30;99.90
21282;DHT22;10800;53.096;18.328;2023-12-14T08:51:44;2.40;99.90
21282;DHT22;10800;53.096;18.328;2023-12-14T08:56:51;2.50;99.90
21282;DHT22;10800;53.096;18.328;2023-12-14T09:02:01;2.50;99.90
21282;DHT22;10800;53.096;18.328;2023-12-14T09:07:11;2.50;99.90
21282;DHT22;10800;53.096;18.328;2023-12-14T09:12:17;2.50;99.90
21282;DHT22;10800;53.096;18.328;2023-12-14T09:17:25;2.60;99.90
21282;DHT22;10800;53.096;18.328;2023-12-14T09:22:54;2.70;99.90
21282;DHT22;10800;53.096;18.328;2023-12-14T09:28:03;2.70;99.90
21282;DHT22;10800;53.096;18.328;2023-12-14T09:33:17;2.70;99.90
21282;DHT22;10800;53.096;18.328;2023-12-14T09:38:27;2.70;99.90
21282;DHT22;10800;53.096;18.328;2023-12-14T09:43:40;2.80;99.90
21282;DHT22;10800;53.096;18.328;2023-12-14T09:48:53;2.90;99.90
21282;DHT22;10800;53.096;18.328;2023-12-14T09:54:03;2.90;99.90
21282;DHT22;10800;53.096;18.328;2023-12-14T09:59:11;2.90;99.90
21282;DHT22;10800;53.096;18.328;2023-12-14T10:04:27;2.90;99.90
21282;DHT22;10800;53.096;18.328;2023-12-14T10:10:13;2.90;99.90
21282;DHT22;10800;53.096;18.328;2023-12-14T10:15:39;2.90;99.90
21282;DHT22;10800;53.096;18.328;2023-12-14T10:21:13;3.00;99.90
21282;DHT22;10800;53.096;18.328;2023-12-14T10:26:23;3.00;99.90
21282;DHT22;10800;53.096;18.328;2023-12-14T10:31:39;3.00;99.90
21282;DHT22;10800;53.096;18.328;2023-12-14T10:36:46;3.00;99.90
21282;DHT22;10800;53.096;18.328;2023-12-14T10:41:54;3.00;99.90
21282;DHT22;10800;53.096;18.328;2023-12-14T10:47:07;3.10;99.90
21282;DHT22;10800;53.096;18.328;2023-12-14T10:52:13;3.10;99.90
21282;DHT22;10800;53.096;18.328;2023-12-14T10:57:19;3.00;99.90
21282;DHT22;10800;53.096;18.328;2023-12-14T11:02:25;3.00;99.90
21282;DHT22;10800;53.096;18.328;2023-12-14T11:07:50;3.00;99.90
21282;DHT22;10800;53.096;18.328;2023-12-14T11:13:02;3.10;99.90
21282;DHT22;10800;53.096;18.328;2023-12-14T11:28:36;3.00;99.90
21282;DHT22;10800;53.096;18.328;2023-12-14T11:33:42;3.00;99.90
21282;DHT22;10800;53.096;18.328;2023-12-14T11:38:49;3.00;99.90
21282;DHT22;10800;53.096;18.328;2023-12-14T11:43:56;3.00;99.90
21282;DHT22;10800;53.096;18.328;2023-12-14T11:49:02;3.10;99.90
21282;DHT22;10800;53.096;18.328;2023-12-14T12:00:10;3.00;99.90
21282;DHT22;10800;53.096;18.328;2023-12-14T12:05:16;3.10;99.90
21282;DHT22;10800;53.096;18.328;2023-12-14T12:10:23;3.10;99.90
21282;DHT22;10800;53.096;18.328;2023-12-14T12:15:31;3.10;99.90
21282;DHT22;10800;53.096;18.328;2023-12-14T12:20:36;3.00;99.90
21282;DHT22;10800;53.096;18.328;2023-12-14T12:25:42;3.00;99.90
21282;DHT22;10800;53.096;18.328;2023-12-14T12:30:48;3.00;99.90
21282;DHT22;10800;53.096;18.328;2023-12-14T12:35:54;3.00;99.90
21282;DHT22;10800;53.096;18.328;2023-12-14T12:41:00;3.00;99.90
21282;DHT22;10800;53.096;18.328;2023-12-14T12:46:06;3.00;99.90
21282;DHT22;10800;53.096;18.328;2023-12-14T12:51:12;3.00;99.90
21282;DHT22;10800;53.096;18.328;2023-12-14T12:56:16;2.90;99.90
21282;DHT22;10800;53.096;18.328;2023-12-14T13:01:22;3.00;99.90
21282;DHT22;10800;53.096;18.328;2023-12-14T13:06:29;2.90;99.90
21282;DHT22;10800;53.096;18.328;2023-12-14T13:11:35;2.90;99.90
21282;DHT22;10800;53.096;18.328;2023-12-14T13:16:42;2.90;99.90
21282;DHT22;10800;53.096;18.328;2023-12-14T13:22:07;2.80;99.90
21282;DHT22;10800;53.096;18.328;2023-12-14T13:27:22;2.80;99.90
21282;DHT22;10800;53.096;18.328;2023-12-14T13:32:30;2.70;99.90
21282;DHT22;10800;53.096;18.328;2023-12-14T13:37:41;2.80;99.90
21282;DHT22;10800;53.096;18.328;2023-12-14T13:42:54;2.70;99.90
21282;DHT22;10800;53.096;18.328;2023-12-14T13:48:08;2.70;99.90
21282;DHT22;10800;53.096;18.328;2023-12-14T13:53:49;2.70;99.90
21282;DHT22;10800;53.096;18.328;2023-12-14T13:59:28;2.60;99.90
21282;DHT22;10800;53.096;18.328;2023-12-14T14:04:33;2.70;99.90
21282;DHT22;10800;53.096;18.328;2023-12-14T14:09:39;2.70;99.90
21282;DHT22;10800;53.096;18.328;2023-12-14T14:14:45;2.60;99.90
21282;DHT22;10800;53.096;18.328;2023-12-14T14:19:50;2.70;99.90
21282;DHT22;10800;53.096;18.328;2023-12-14T14:24:56;2.70;99.90
21282;DHT22;10800;53.096;18.328;2023-12-14T14:30:02;2.60;99.90
21282;DHT22;10800;53.096;18.328;2023-12-14T14:35:08;2.60;99.90
21282;DHT22;10800;53.096;18.328;2023-12-14T14:40:14;2.60;99.90
21282;DHT22;10800;53.096;18.328;2023-12-14T14:45:20;2.60;99.90
21282;DHT22;10800;53.096;18.328;2023-12-14T14:50:26;2.50;99.90
21282;DHT22;10800;53.096;18.328;2023-12-14T14:55:31;2.50;99.90
21282;DHT22;10800;53.096;18.328;2023-12-14T15:00:38;2.50;99.90
21282;DHT22;10800;53.096;18.328;2023-12-14T15:05:44;2.50;99.90
21282;DHT22;10800;53.096;18.328;2023-12-14T15:10:50;2.50;99.90
21282;DHT22;10800;53.096;18.328;2023-12-14T15:15:56;2.50;99.90
21282;DHT22;10800;53.096;18.328;2023-12-14T15:21:02;2.50;99.90
21282;DHT22;10800;53.096;18.328;2023-12-14T15:26:09;2.40;99.90
21282;DHT22;10800;53.096;18.328;2023-12-14T15:31:15;2.40;99.90
21282;DHT22;10800;53.096;18.328;2023-12-14T15:36:21;2.40;99.90
21282;DHT22;10800;53.096;18.328;2023-12-14T15:41:27;2.40;99.90
21282;DHT22;10800;53.096;18.328;2023-12-14T15:46:33;2.30;99.90
21282;DHT22;10800;53.096;18.328;2023-12-14T15:51:41;2.30;99.90
21282;DHT22;10800;53.096;18.328;2023-12-14T15:56:47;2.30;99.90
21282;DHT22;10800;53.096;18.328;2023-12-14T16:01:55;2.20;99.90
21282;DHT22;10800;53.096;18.328;2023-12-14T16:07:24;2.20;99.90
21282;DHT22;10800;53.096;18.328;2023-12-14T16:12:55;2.20;99.90
21282;DHT22;10800;53.096;18.328;2023-12-14T16:18:23;2.10;99.90
21282;DHT22;10800;53.096;18.328;2023-12-14T16:23:34;2.10;99.90
21282;DHT22;10800;53.096;18.328;2023-12-14T16:28:47;2.10;99.90
21282;DHT22;10800;53.096;18.328;2023-12-14T16:34:14;2.10;99.90
21282;DHT22;10800;53.096;18.328;2023-12-14T16:39:31;2.10;99.90
21282;DHT22;10800;53.096;18.328;2023-12-14T16:45:18;2.10;99.90
21282;DHT22;10800;53.096;18.328;2023-12-14T16:55:48;1.90;99.90
21282;DHT22;10800;53.096;18.328;2023-12-14T17:01:07;1.90;99.90
21282;DHT22;10800;53.096;18.328;2023-12-14T17:06:17;1.80;99.90
21282;DHT22;10800;53.096;18.328;2023-12-14T17:11:24;1.80;99.90
21282;DHT22;10800;53.096;18.328;2023-12-14T17:16:39;1.80;99.90
21282;DHT22;10800;53.096;18.328;2023-12-14T17:22:06;1.80;99.90
21282;DHT22;10800;53.096;18.328;2023-12-14T17:27:15;1.70;99.90
21282;DHT22;10800;53.096;18.328;2023-12-14T17:32:22;1.70;99.90
21282;DHT22;10800;53.096;18.328;2023-12-14T17:38:07;1.70;99.90
21282;DHT22;10800;53.096;18.328;2023-12-14T17:43:12;1.70;99.90
21282;DHT22;10800;53.096;18.328;2023-12-14T17:48:21;1.80;99.90
21282;DHT22;10800;53.096;18.328;2023-12-14T17:53:34;1.80;99.90
21282;DHT22;10800;53.096;18.328;2023-12-14T17:58:44;1.80;99.90
21282;DHT22;10800;53.096;18.328;2023-12-14T18:03:52;1.80;99.90
21282;DHT22;10800;53.096;18.328;2023-12-14T18:14:47;1.80;99.90
21282;DHT22;10800;53.096;18.328;2023-12-14T18:20:35;1.70;99.90
21282;DHT22;10800;53.096;18.328;2023-12-14T18:25:43;1.70;99.90
21282;DHT22;10800;53.096;18.328;2023-12-14T18:30:55;1.70;99.90
21282;DHT22;10800;53.096;18.328;2023-12-14T18:36:13;1.80;99.90
21282;DHT22;10800;53.096;18.328;2023-12-14T18:41:22;1.80;99.90
21282;DHT22;10800;53.096;18.328;2023-12-14T18:46:31;1.80;99.90
21282;DHT22;10800;53.096;18.328;2023-12-14T18:51:44;1.90;99.90
21282;DHT22;10800;53.096;18.328;2023-12-14T18:56:54;1.90;99.90
21282;DHT22;10800;53.096;18.328;2023-12-14T19:02:17;2.00;99.90
21282;DHT22;10800;53.096;18.328;2023-12-14T19:07:25;2.00;99.90
21282;DHT22;10800;53.096;18.328;2023-12-14T19:12:34;2.10;99.90
21282;DHT22;10800;53.096;18.328;2023-12-14T19:18:02;2.20;99.90
21282;DHT22;10800;53.096;18.328;2023-12-14T19:23:12;2.10;99.90
21282;DHT22;10800;53.096;18.328;2023-12-14T19:28:30;2.10;99.90
21282;DHT22;10800;53.096;18.328;2023-12-14T19:33:44;2.00;99.90
21282;DHT22;10800;53.096;18.328;2023-12-14T19:39:37;2.00;99.90
21282;DHT22;10800;53.096;18.328;2023-12-14T19:45:17;2.00;99.90
21282;DHT22;10800;53.096;18.328;2023-12-14T19:50:28;2.10;99.90
21282;DHT22;10800;53.096;18.328;2023-12-14T19:56:15;2.10;99.90
21282;DHT22;10800;53.096;18.328;2023-12-14T20:01:46;2.10;99.90
21282;DHT22;10800;53.096;18.328;2023-12-14T20:07:17;2.00;99.90
21282;DHT22;10800;53.096;18.328;2023-12-14T20:12:50;2.00;99.90
21282;DHT22;10800;53.096;18.328;2023-12-14T20:19:00;2.00;99.90
21282;DHT22;10800;53.096;18.328;2023-12-14T20:24:23;2.00;99.90
21282;DHT22;10800;53.096;18.328;2023-12-14T20:29:46;2.00;99.90
21282;DHT22;10800;53.096;18.328;2023-12-14T20:35:19;1.90;99.90
21282;DHT22;10800;53.096;18.328;2023-12-14T20:40:33;1.90;99.90
21282;DHT22;10800;53.096;18.328;2023-12-14T20:45:45;1.90;99.90
21282;DHT22;10800;53.096;18.328;2023-12-14T20:51:18;1.90;99.90
21282;DHT22;10800;53.096;18.328;2023-12-14T20:56:52;1.80;99.90
21282;DHT22;10800;53.096;18.328;2023-12-14T21:02:22;1.80;99.90
21282;DHT22;10800;53.096;18.328;2023-12-14T21:07:47;1.80;99.90
21282;DHT22;10800;53.096;18.328;2023-12-14T21:13:23;1.80;99.90
21282;DHT22;10800;53.096;18.328;2023-12-14T21:19:15;1.80;99.90
21282;DHT22;10800;53.096;18.328;2023-12-14T21:24:42;1.70;99.90
21282;DHT22;10800;53.096;18.328;2023-12-14T21:30:03;1.70;99.90
21282;DHT22;10800;53.096;18.328;2023-12-14T21:35:54;1.60;99.90
21282;DHT22;10800;53.096;18.328;2023-12-14T21:41:33;1.60;99.90
21282;DHT22;10800;53.096;18.328;2023-12-14T21:46:47;1.60;99.90
21282;DHT22;10800;53.096;18.328;2023-12-14T21:52:08;1.60;99.90
21282;DHT22;10800;53.096;18.328;2023-12-14T21:57:38;1.60;99.90
21282;DHT22;10800;53.096;18.328;2023-12-14T22:03:32;1.60;99.90
21282;DHT22;10800;53.096;18.328;2023-12-14T22:08:58;1.60;99.90
21282;DHT22;10800;53.096;18.328;2023-12-14T22:14:51;1.60;99.90
21282;DHT22;10800;53.096;18.328;2023-12-14T22:20:18;1.60;99.90
21282;DHT22;10800;53.096;18.328;2023-12-14T22:26:03;1.50;99.90
21282;DHT22;10800;53.096;18.328;2023-12-14T22:31:34;1.50;99.90
21282;DHT22;10800;53.096;18.328;2023-12-14T22:36:45;1.50;99.90
21282;DHT22;10800;53.096;18.328;2023-12-14T22:42:14;1.50;99.90
21282;DHT22;10800;53.096;18.328;2023-12-14T22:47:40;1.50;99.90
21282;DHT22;10800;53.096;18.328;2023-12-14T22:52:48;1.50;99.90
21282;DHT22;10800;53.096;18.328;2023-12-14T22:57:57;1.40;99.90
21282;DHT22;10800;53.096;18.328;2023-12-14T23:03:34;1.40;99.90
21282;DHT22;10800;53.096;18.328;2023-12-14T23:09:02;1.40;99.90
21282;DHT22;10800;53.096;18.328;2023-12-14T23:14:28;1.30;99.90
21282;DHT22;10800;53.096;18.328;2023-12-14T23:19:35;1.30;99.90
21282;DHT22;10800;53.096;18.328;2023-12-14T23:24:43;1.30;99.90
21282;DHT22;10800;53.096;18.328;2023-12-14T23:29:54;1.30;99.90
21282;DHT22;10800;53.096;18.328;2023-12-14T23:35:46;1.20;99.90
21282;DHT22;10800;53.096;18.328;2023-12-14T23:40:55;1.10;99.90
21282;DHT22;10800;53.096;18.328;2023-12-14T23:46:09;1.00;99.90
21282;DHT22;10800;53.096;18.328;2023-12-14T23:51:50;1.00;99.90
21282;DHT22;10800;53.096;18.328;2023-12-14T23:57:08;0.90;99.90
